sensor_id;sensor_type;location;lat;lon;timestamp;temperature;humidity
11501;DHT22;5807;51.606;7.624;2022-09-01T00:01:25;15.60;93.10
11501;DHT22;5807;51.606;7.624;2022-09-01T00:03:52;15.60;92.80
11501;DHT22;5807;51.606;7.624;2022-09-01T00:06:21;15.50;92.50
11501;DHT22;5807;51.606;7.624;2022-09-01T00:08:51;15.60;92.80
11501;DHT22;5807;51.606;7.624;2022-09-01T00:11:19;15.60;92.70
11501;DHT22;5807;51.606;7.624;2022-09-01T00:13:47;15.50;92.60
11501;DHT22;5807;51.606;7.624;2022-09-01T00:16:15;15.50;93.20
11501;DHT22;5807;51.606;7.624;2022-09-01T00:18:44;15.40;92.70
11501;DHT22;5807;51.606;7.624;2022-09-01T00:21:14;15.40;92.80
11501;DHT22;5807;51.606;7.624;2022-09-01T00:23:41;15.90;93.20
11501;DHT22;5807;51.606;7.624;2022-09-01T00:26:10;15.40;92.90
11501;DHT22;5807;51.606;7.624;2022-09-01T00:28:37;14.90;92.90
11501;DHT22;5807;51.606;7.624;2022-09-01T00:31:05;15.70;93.10
11501;DHT22;5807;51.606;7.624;2022-09-01T00:33:34;15.30;93.10
11501;DHT22;5807;51.606;7.624;2022-09-01T00:36:02;15.30;93.80
11501;DHT22;5807;51.606;7.624;2022-09-01T00:38:30;15.20;93.80
11501;DHT22;5807;51.606;7.624;2022-09-01T00:40:57;15.10;94.30
11501;DHT22;5807;51.606;7.624;2022-09-01T00:43:37;15.00;93.70
11501;DHT22;5807;51.606;7.624;2022-09-01T00:46:05;15.00;93.40
11501;DHT22;5807;51.606;7.624;2022-09-01T00:48:33;15.00;93.50
11501;DHT22;5807;51.606;7.624;2022-09-01T00:51:01;15.00;93.90
11501;DHT22;5807;51.606;7.624;2022-09-01T00:53:28;15.00;94.00
11501;DHT22;5807;51.606;7.624;2022-09-01T00:55:55;15.00;94.00
11501;DHT22;5807;51.606;7.624;2022-09-01T00:58:22;15.00;95.10
11501;DHT22;5807;51.606;7.624;2022-09-01T01:00:52;15.00;95.00
11501;DHT22;5807;51.606;7.624;2022-09-01T01:03:19;14.90;94.70
11501;DHT22;5807;51.606;7.624;2022-09-01T01:05:49;14.90;94.80
11501;DHT22;5807;51.606;7.624;2022-09-01T01:08:19;14.90;94.80
11501;DHT22;5807;51.606;7.624;2022-09-01T01:10:52;14.80;95.10
11501;DHT22;5807;51.606;7.624;2022-09-01T01:13:19;14.80;95.30
11501;DHT22;5807;51.606;7.624;2022-09-01T01:15:46;14.70;95.10
11501;DHT22;5807;51.606;7.624;2022-09-01T01:18:15;14.70;95.30
11501;DHT22;5807;51.606;7.624;2022-09-01T01:20:42;14.60;95.50
11501;DHT22;5807;51.606;7.624;2022-09-01T01:23:32;14.60;95.20
11501;DHT22;5807;51.606;7.624;2022-09-01T01:26:05;14.60;95.50
11501;DHT22;5807;51.606;7.624;2022-09-01T01:28:35;14.60;95.50
11501;DHT22;5807;51.606;7.624;2022-09-01T01:31:09;14.50;95.40
11501;DHT22;5807;51.606;7.624;2022-09-01T01:33:39;14.50;95.90
11501;DHT22;5807;51.606;7.624;2022-09-01T01:36:07;14.50;96.20
11501;DHT22;5807;51.606;7.624;2022-09-01T01:38:37;14.50;96.10
11501;DHT22;5807;51.606;7.624;2022-09-01T01:41:07;14.50;95.60
11501;DHT22;5807;51.606;7.624;2022-09-01T01:43:34;14.50;95.50
11501;DHT22;5807;51.606;7.624;2022-09-01T01:46:03;14.50;94.90
11501;DHT22;5807;51.606;7.624;2022-09-01T01:48:33;14.50;95.30
11501;DHT22;5807;51.606;7.624;2022-09-01T01:51:03;14.50;95.60
11501;DHT22;5807;51.606;7.624;2022-09-01T01:53:31;14.50;96.20
11501;DHT22;5807;51.606;7.624;2022-09-01T01:55:58;14.40;95.30
11501;DHT22;5807;51.606;7.624;2022-09-01T01:58:27;14.40;95.90
11501;DHT22;5807;51.606;7.624;2022-09-01T02:00:56;14.40;96.20
11501;DHT22;5807;51.606;7.624;2022-09-01T02:03:25;14.40;95.90
11501;DHT22;5807;51.606;7.624;2022-09-01T02:05:53;14.40;96.10
11501;DHT22;5807;51.606;7.624;2022-09-01T02:08:23;14.30;96.10
11501;DHT22;5807;51.606;7.624;2022-09-01T02:10:53;14.20;96.80
11501;DHT22;5807;51.606;7.624;2022-09-01T02:13:21;14.20;96.70
11501;DHT22;5807;51.606;7.624;2022-09-01T02:15:58;14.10;97.40
11501;DHT22;5807;51.606;7.624;2022-09-01T02:18:28;14.10;97.20
11501;DHT22;5807;51.606;7.624;2022-09-01T02:20:58;14.00;97.30
11501;DHT22;5807;51.606;7.624;2022-09-01T02:23:26;14.00;97.30
11501;DHT22;5807;51.606;7.624;2022-09-01T02:25:56;13.90;97.80
11501;DHT22;5807;51.606;7.624;2022-09-01T02:28:25;13.70;97.80
11501;DHT22;5807;51.606;7.624;2022-09-01T02:30:53;13.80;97.70
11501;DHT22;5807;51.606;7.624;2022-09-01T02:33:23;13.70;97.90
11501;DHT22;5807;51.606;7.624;2022-09-01T02:35:52;13.70;98.00
11501;DHT22;5807;51.606;7.624;2022-09-01T02:38:19;13.60;98.40
11501;DHT22;5807;51.606;7.624;2022-09-01T02:40:52;13.60;98.70
11501;DHT22;5807;51.606;7.624;2022-09-01T02:43:20;13.60;99.20
11501;DHT22;5807;51.606;7.624;2022-09-01T02:45:48;13.60;98.70
11501;DHT22;5807;51.606;7.624;2022-09-01T02:48:18;13.50;99.00
11501;DHT22;5807;51.606;7.624;2022-09-01T02:50:49;13.50;99.50
11501;DHT22;5807;51.606;7.624;2022-09-01T02:53:16;13.50;99.20
11501;DHT22;5807;51.606;7.624;2022-09-01T02:55:44;13.60;98.80
11501;DHT22;5807;51.606;7.624;2022-09-01T03:00:40;13.60;99.20
11501;DHT22;5807;51.606;7.624;2022-09-01T03:03:08;13.60;99.10
11501;DHT22;5807;51.606;7.624;2022-09-01T03:06:03;13.70;99.30
11501;DHT22;5807;51.606;7.624;2022-09-01T03:08:32;13.70;99.50
11501;DHT22;5807;51.606;7.624;2022-09-01T03:11:04;13.70;99.90
11501;DHT22;5807;51.606;7.624;2022-09-01T03:13:36;13.70;99.90
11501;DHT22;5807;51.606;7.624;2022-09-01T03:16:04;13.60;99.90
11501;DHT22;5807;51.606;7.624;2022-09-01T03:18:31;13.60;99.90
11501;DHT22;5807;51.606;7.624;2022-09-01T03:20:59;13.70;99.90
11501;DHT22;5807;51.606;7.624;2022-09-01T03:23:29;13.60;99.90
11501;DHT22;5807;51.606;7.624;2022-09-01T03:25:58;13.60;99.90
11501;DHT22;5807;51.606;7.624;2022-09-01T03:28:26;13.60;99.90
11501;DHT22;5807;51.606;7.624;2022-09-01T03:30:55;13.60;99.90
11501;DHT22;5807;51.606;7.624;2022-09-01T03:33:23;13.50;99.90
11501;DHT22;5807;51.606;7.624;2022-09-01T03:35:51;13.60;99.90
11501;DHT22;5807;51.606;7.624;2022-09-01T03:38:18;13.60;99.90
11501;DHT22;5807;51.606;7.624;2022-09-01T03:40:52;13.70;99.90
11501;DHT22;5807;51.606;7.624;2022-09-01T03:43:20;14.00;99.90
11501;DHT22;5807;51.606;7.624;2022-09-01T03:45:49;13.60;99.90
11501;DHT22;5807;51.606;7.624;2022-09-01T03:48:16;13.60;99.90
11501;DHT22;5807;51.606;7.624;2022-09-01T03:50:44;13.60;99.90
11501;DHT22;5807;51.606;7.624;2022-09-01T03:53:12;13.50;99.90
11501;DHT22;5807;51.606;7.624;2022-09-01T03:55:40;13.50;99.90
11501;DHT22;5807;51.606;7.624;2022-09-01T03:58:09;13.50;99.90
11501;DHT22;5807;51.606;7.624;2022-09-01T04:00:38;13.50;99.90
11501;DHT22;5807;51.606;7.624;2022-09-01T04:03:07;13.40;99.90
11501;DHT22;5807;51.606;7.624;2022-09-01T04:05:36;13.50;99.90
11501;DHT22;5807;51.606;7.624;2022-09-01T04:08:05;13.40;99.90
11501;DHT22;5807;51.606;7.624;2022-09-01T04:10:36;13.20;99.90
11501;DHT22;5807;51.606;7.624;2022-09-01T04:13:04;13.20;99.90
11501;DHT22;5807;51.606;7.624;2022-09-01T04:15:36;13.10;99.90
11501;DHT22;5807;51.606;7.624;2022-09-01T04:18:03;13.10;99.90
11501;DHT22;5807;51.606;7.624;2022-09-01T04:20:34;13.00;99.90
11501;DHT22;5807;51.606;7.624;2022-09-01T04:23:13;13.00;99.90
11501;DHT22;5807;51.606;7.624;2022-09-01T04:28:15;12.70;99.90
11501;DHT22;5807;51.606;7.624;2022-09-01T04:30:50;12.80;99.90
11501;DHT22;5807;51.606;7.624;2022-09-01T04:33:18;12.80;99.90
11501;DHT22;5807;51.606;7.624;2022-09-01T04:35:45;12.80;99.90
11501;DHT22;5807;51.606;7.624;2022-09-01T04:38:12;12.80;99.90
11501;DHT22;5807;51.606;7.624;2022-09-01T04:40:41;12.70;99.90
11501;DHT22;5807;51.606;7.624;2022-09-01T04:43:09;12.70;99.90
11501;DHT22;5807;51.606;7.624;2022-09-01T04:45:36;12.60;99.90
11501;DHT22;5807;51.606;7.624;2022-09-01T04:48:05;12.60;99.90
11501;DHT22;5807;51.606;7.624;2022-09-01T04:50:32;12.60;99.90
11501;DHT22;5807;51.606;7.624;2022-09-01T04:53:01;12.50;99.90
11501;DHT22;5807;51.606;7.624;2022-09-01T04:55:30;12.70;99.90
11501;DHT22;5807;51.606;7.624;2022-09-01T04:57:59;12.60;99.90
11501;DHT22;5807;51.606;7.624;2022-09-01T05:00:29;12.60;99.90
11501;DHT22;5807;51.606;7.624;2022-09-01T05:02:59;12.50;99.90
11501;DHT22;5807;51.606;7.624;2022-09-01T05:05:36;12.50;99.90
11501;DHT22;5807;51.606;7.624;2022-09-01T05:08:08;12.40;99.90
11501;DHT22;5807;51.606;7.624;2022-09-01T05:10:39;12.40;99.90
11501;DHT22;5807;51.606;7.624;2022-09-01T05:13:09;12.40;99.90
11501;DHT22;5807;51.606;7.624;2022-09-01T05:15:45;12.40;99.90
11501;DHT22;5807;51.606;7.624;2022-09-01T05:18:13;12.40;99.90
11501;DHT22;5807;51.606;7.624;2022-09-01T05:23:11;12.50;99.90
11501;DHT22;5807;51.606;7.624;2022-09-01T05:25:42;12.50;99.90
11501;DHT22;5807;51.606;7.624;2022-09-01T05:28:10;12.50;99.90
11501;DHT22;5807;51.606;7.624;2022-09-01T05:30:39;12.60;99.90
11501;DHT22;5807;51.606;7.624;2022-09-01T05:33:07;12.50;99.90
11501;DHT22;5807;51.606;7.624;2022-09-01T05:35:38;12.70;99.90
11501;DHT22;5807;51.606;7.624;2022-09-01T05:38:12;12.80;99.90
11501;DHT22;5807;51.606;7.624;2022-09-01T05:40:40;12.80;99.90
11501;DHT22;5807;51.606;7.624;2022-09-01T05:43:08;12.80;99.90
11501;DHT22;5807;51.606;7.624;2022-09-01T05:45:38;12.90;99.90
11501;DHT22;5807;51.606;7.624;2022-09-01T05:48:05;13.00;99.90
11501;DHT22;5807;51.606;7.624;2022-09-01T05:50:34;13.00;99.90
11501;DHT22;5807;51.606;7.624;2022-09-01T05:53:05;13.10;99.90
11501;DHT22;5807;51.606;7.624;2022-09-01T05:55:37;13.10;99.90
11501;DHT22;5807;51.606;7.624;2022-09-01T05:58:04;13.50;99.90
11501;DHT22;5807;51.606;7.624;2022-09-01T06:00:31;13.50;99.90
11501;DHT22;5807;51.606;7.624;2022-09-01T06:03:25;13.90;99.90
11501;DHT22;5807;51.606;7.624;2022-09-01T06:05:53;14.30;99.90
11501;DHT22;5807;51.606;7.624;2022-09-01T06:08:22;14.30;99.90
11501;DHT22;5807;51.606;7.624;2022-09-01T06:15:47;14.30;99.90
11501;DHT22;5807;51.606;7.624;2022-09-01T06:18:15;14.30;99.90
11501;DHT22;5807;51.606;7.624;2022-09-01T06:20:45;14.30;99.90
11501;DHT22;5807;51.606;7.624;2022-09-01T06:23:13;14.40;99.90
11501;DHT22;5807;51.606;7.624;2022-09-01T06:25:43;14.90;99.90
11501;DHT22;5807;51.606;7.624;2022-09-01T06:28:12;14.80;99.90
11501;DHT22;5807;51.606;7.624;2022-09-01T06:30:39;15.10;99.90
11501;DHT22;5807;51.606;7.624;2022-09-01T06:33:09;15.50;99.90
11501;DHT22;5807;51.606;7.624;2022-09-01T06:35:38;15.80;99.90
11501;DHT22;5807;51.606;7.624;2022-09-01T06:38:07;16.00;99.30
11501;DHT22;5807;51.606;7.624;2022-09-01T06:40:34;16.10;99.60
11501;DHT22;5807;51.606;7.624;2022-09-01T06:43:04;16.10;99.30
11501;DHT22;5807;51.606;7.624;2022-09-01T06:45:38;16.10;98.30
11501;DHT22;5807;51.606;7.624;2022-09-01T06:48:06;16.20;98.80
11501;DHT22;5807;51.606;7.624;2022-09-01T06:50:33;16.40;99.90
11501;DHT22;5807;51.606;7.624;2022-09-01T06:53:02;16.90;99.00
11501;DHT22;5807;51.606;7.624;2022-09-01T06:55:35;17.40;97.60
11501;DHT22;5807;51.606;7.624;2022-09-01T06:58:03;17.90;96.10
11501;DHT22;5807;51.606;7.624;2022-09-01T07:00:33;18.20;95.30
11501;DHT22;5807;51.606;7.624;2022-09-01T07:03:07;18.40;94.70
11501;DHT22;5807;51.606;7.624;2022-09-01T07:05:36;18.80;96.30
11501;DHT22;5807;51.606;7.624;2022-09-01T07:08:04;19.00;94.80
11501;DHT22;5807;51.606;7.624;2022-09-01T07:10:40;19.30;94.40
11501;DHT22;5807;51.606;7.624;2022-09-01T07:13:10;19.90;93.00
11501;DHT22;5807;51.606;7.624;2022-09-01T07:15:45;20.50;90.60
11501;DHT22;5807;51.606;7.624;2022-09-01T07:18:14;20.60;91.70
11501;DHT22;5807;51.606;7.624;2022-09-01T07:20:42;20.50;91.20
11501;DHT22;5807;51.606;7.624;2022-09-01T07:23:24;21.00;90.00
11501;DHT22;5807;51.606;7.624;2022-09-01T07:25:53;21.00;91.30
11501;DHT22;5807;51.606;7.624;2022-09-01T07:28:25;21.30;90.00
11501;DHT22;5807;51.606;7.624;2022-09-01T07:30:55;20.90;87.60
11501;DHT22;5807;51.606;7.624;2022-09-01T07:33:23;21.10;88.80
11501;DHT22;5807;51.606;7.624;2022-09-01T07:35:52;21.30;89.70
11501;DHT22;5807;51.606;7.624;2022-09-01T07:38:20;21.30;90.00
11501;DHT22;5807;51.606;7.624;2022-09-01T07:40:47;21.50;88.40
11501;DHT22;5807;51.606;7.624;2022-09-01T07:43:19;21.40;88.40
11501;DHT22;5807;51.606;7.624;2022-09-01T07:45:50;21.60;87.00
11501;DHT22;5807;51.606;7.624;2022-09-01T07:48:19;21.30;87.00
11501;DHT22;5807;51.606;7.624;2022-09-01T07:50:48;21.50;87.60
11501;DHT22;5807;51.606;7.624;2022-09-01T07:53:19;21.20;85.40
11501;DHT22;5807;51.606;7.624;2022-09-01T07:55:47;21.20;88.20
11501;DHT22;5807;51.606;7.624;2022-09-01T07:58:15;21.50;86.70
11501;DHT22;5807;51.606;7.624;2022-09-01T08:00:43;21.40;87.80
11501;DHT22;5807;51.606;7.624;2022-09-01T08:03:11;21.40;85.50
11501;DHT22;5807;51.606;7.624;2022-09-01T08:05:39;21.20;86.50
11501;DHT22;5807;51.606;7.624;2022-09-01T08:08:07;21.20;87.10
11501;DHT22;5807;51.606;7.624;2022-09-01T08:10:37;21.40;85.70
11501;DHT22;5807;51.606;7.624;2022-09-01T08:13:05;21.50;85.00
11501;DHT22;5807;51.606;7.624;2022-09-01T08:15:32;21.60;84.40
11501;DHT22;5807;51.606;7.624;2022-09-01T08:18:00;21.90;88.20
11501;DHT22;5807;51.606;7.624;2022-09-01T08:20:27;22.00;85.40
11501;DHT22;5807;51.606;7.624;2022-09-01T08:22:56;21.90;85.30
11501;DHT22;5807;51.606;7.624;2022-09-01T08:25:23;22.00;84.30
11501;DHT22;5807;51.606;7.624;2022-09-01T08:27:50;22.10;84.80
11501;DHT22;5807;51.606;7.624;2022-09-01T08:30:17;22.40;84.00
11501;DHT22;5807;51.606;7.624;2022-09-01T08:32:44;22.50;83.90
11501;DHT22;5807;51.606;7.624;2022-09-01T08:35:12;23.00;82.40
11501;DHT22;5807;51.606;7.624;2022-09-01T08:37:40;23.00;83.50
11501;DHT22;5807;51.606;7.624;2022-09-01T08:40:11;23.20;83.00
11501;DHT22;5807;51.606;7.624;2022-09-01T08:42:47;23.40;82.80
11501;DHT22;5807;51.606;7.624;2022-09-01T08:45:22;23.70;78.00
11501;DHT22;5807;51.606;7.624;2022-09-01T08:47:52;23.60;79.40
11501;DHT22;5807;51.606;7.624;2022-09-01T08:50:20;23.40;78.50
11501;DHT22;5807;51.606;7.624;2022-09-01T08:52:53;23.50;78.20
11501;DHT22;5807;51.606;7.624;2022-09-01T08:55:30;23.50;76.40
11501;DHT22;5807;51.606;7.624;2022-09-01T08:58:02;23.30;78.00
11501;DHT22;5807;51.606;7.624;2022-09-01T09:00:38;23.60;78.30
11501;DHT22;5807;51.606;7.624;2022-09-01T09:03:15;23.60;76.50
11501;DHT22;5807;51.606;7.624;2022-09-01T09:06:02;23.70;78.10
11501;DHT22;5807;51.606;7.624;2022-09-01T09:08:44;23.60;79.70
11501;DHT22;5807;51.606;7.624;2022-09-01T09:14:07;23.90;75.60
11501;DHT22;5807;51.606;7.624;2022-09-01T09:16:39;23.90;76.90
11501;DHT22;5807;51.606;7.624;2022-09-01T09:19:11;23.60;77.00
11501;DHT22;5807;51.606;7.624;2022-09-01T09:21:41;23.90;77.20
11501;DHT22;5807;51.606;7.624;2022-09-01T09:24:12;24.20;74.90
11501;DHT22;5807;51.606;7.624;2022-09-01T09:26:47;24.10;74.20
11501;DHT22;5807;51.606;7.624;2022-09-01T09:29:14;24.20;74.50
11501;DHT22;5807;51.606;7.624;2022-09-01T09:31:41;24.20;75.70
11501;DHT22;5807;51.606;7.624;2022-09-01T09:34:29;24.30;73.70
11501;DHT22;5807;51.606;7.624;2022-09-01T09:37:00;24.50;78.10
11501;DHT22;5807;51.606;7.624;2022-09-01T09:39:27;24.80;77.70
11501;DHT22;5807;51.606;7.624;2022-09-01T09:42:05;25.20;77.20
11501;DHT22;5807;51.606;7.624;2022-09-01T09:44:53;25.50;73.60
11501;DHT22;5807;51.606;7.624;2022-09-01T09:47:34;25.50;72.30
11501;DHT22;5807;51.606;7.624;2022-09-01T09:50:15;25.20;73.20
11501;DHT22;5807;51.606;7.624;2022-09-01T09:52:43;25.40;73.30
11501;DHT22;5807;51.606;7.624;2022-09-01T09:55:20;25.40;74.50
11501;DHT22;5807;51.606;7.624;2022-09-01T09:57:52;25.50;75.60
11501;DHT22;5807;51.606;7.624;2022-09-01T10:00:22;25.10;73.30
11501;DHT22;5807;51.606;7.624;2022-09-01T10:02:55;24.90;76.70
11501;DHT22;5807;51.606;7.624;2022-09-01T10:05:37;24.80;75.40
11501;DHT22;5807;51.606;7.624;2022-09-01T10:08:06;25.10;74.30
11501;DHT22;5807;51.606;7.624;2022-09-01T10:10:39;25.40;73.40
11501;DHT22;5807;51.606;7.624;2022-09-01T10:13:11;25.80;72.60
11501;DHT22;5807;51.606;7.624;2022-09-01T10:15:40;26.00;75.80
11501;DHT22;5807;51.606;7.624;2022-09-01T10:18:14;26.20;72.90
11501;DHT22;5807;51.606;7.624;2022-09-01T10:20:45;25.70;73.30
11501;DHT22;5807;51.606;7.624;2022-09-01T10:23:14;25.40;73.40
11501;DHT22;5807;51.606;7.624;2022-09-01T10:25:41;25.20;72.70
11501;DHT22;5807;51.606;7.624;2022-09-01T10:28:15;24.80;74.10
11501;DHT22;5807;51.606;7.624;2022-09-01T10:30:45;24.70;73.20
11501;DHT22;5807;51.606;7.624;2022-09-01T10:33:14;24.80;74.80
11501;DHT22;5807;51.606;7.624;2022-09-01T10:35:43;25.00;73.60
11501;DHT22;5807;51.606;7.624;2022-09-01T10:38:15;25.60;74.60
11501;DHT22;5807;51.606;7.624;2022-09-01T10:40:44;26.00;72.90
11501;DHT22;5807;51.606;7.624;2022-09-01T10:43:31;25.90;71.80
11501;DHT22;5807;51.606;7.624;2022-09-01T10:46:00;25.50;73.60
11501;DHT22;5807;51.606;7.624;2022-09-01T10:48:33;25.50;74.30
11501;DHT22;5807;51.606;7.624;2022-09-01T10:54:06;25.30;71.30
11501;DHT22;5807;51.606;7.624;2022-09-01T10:56:39;24.90;73.50
11501;DHT22;5807;51.606;7.624;2022-09-01T10:59:24;25.20;74.10
11501;DHT22;5807;51.606;7.624;2022-09-01T11:02:19;26.00;74.10
11501;DHT22;5807;51.606;7.624;2022-09-01T11:05:13;25.60;72.40
11501;DHT22;5807;51.606;7.624;2022-09-01T11:07:51;25.30;73.10
11501;DHT22;5807;51.606;7.624;2022-09-01T11:10:35;25.50;71.30
11501;DHT22;5807;51.606;7.624;2022-09-01T11:13:35;25.60;70.80
11501;DHT22;5807;51.606;7.624;2022-09-01T11:16:27;25.00;71.20
11501;DHT22;5807;51.606;7.624;2022-09-01T11:18:55;25.00;72.00
11501;DHT22;5807;51.606;7.624;2022-09-01T11:21:42;25.50;71.30
11501;DHT22;5807;51.606;7.624;2022-09-01T11:24:46;25.60;70.50
11501;DHT22;5807;51.606;7.624;2022-09-01T11:30:31;26.30;70.50
11501;DHT22;5807;51.606;7.624;2022-09-01T11:36:14;27.10;66.70
11501;DHT22;5807;51.606;7.624;2022-09-01T11:38:48;27.60;66.30
11501;DHT22;5807;51.606;7.624;2022-09-01T11:41:55;27.50;61.50
11501;DHT22;5807;51.606;7.624;2022-09-01T11:47:55;27.40;61.60
11501;DHT22;5807;51.606;7.624;2022-09-01T11:50:33;27.20;59.90
11501;DHT22;5807;51.606;7.624;2022-09-01T11:53:23;27.30;61.10
11501;DHT22;5807;51.606;7.624;2022-09-01T11:55:53;27.10;61.10
11501;DHT22;5807;51.606;7.624;2022-09-01T11:58:32;27.10;60.40
11501;DHT22;5807;51.606;7.624;2022-09-01T12:04:33;27.10;58.40
11501;DHT22;5807;51.606;7.624;2022-09-01T12:07:41;27.10;62.30
11501;DHT22;5807;51.606;7.624;2022-09-01T12:10:35;27.10;59.80
11501;DHT22;5807;51.606;7.624;2022-09-01T12:13:10;27.30;57.40
11501;DHT22;5807;51.606;7.624;2022-09-01T12:16:19;27.10;58.20
11501;DHT22;5807;51.606;7.624;2022-09-01T12:18:51;27.40;57.10
11501;DHT22;5807;51.606;7.624;2022-09-01T12:21:34;27.40;56.90
11501;DHT22;5807;51.606;7.624;2022-09-01T12:24:11;27.20;58.60
11501;DHT22;5807;51.606;7.624;2022-09-01T12:26:39;27.40;59.60
11501;DHT22;5807;51.606;7.624;2022-09-01T12:29:07;27.30;57.40
11501;DHT22;5807;51.606;7.624;2022-09-01T12:31:38;27.30;57.80
11501;DHT22;5807;51.606;7.624;2022-09-01T12:34:23;27.20;58.90
11501;DHT22;5807;51.606;7.624;2022-09-01T12:37:03;27.10;57.30
11501;DHT22;5807;51.606;7.624;2022-09-01T12:39:35;27.30;58.10
11501;DHT22;5807;51.606;7.624;2022-09-01T12:42:21;27.40;58.00
11501;DHT22;5807;51.606;7.624;2022-09-01T12:44:53;27.50;56.00
11501;DHT22;5807;51.606;7.624;2022-09-01T12:47:44;27.40;56.40
11501;DHT22;5807;51.606;7.624;2022-09-01T12:50:42;27.60;57.80
11501;DHT22;5807;51.606;7.624;2022-09-01T12:53:25;27.70;56.10
11501;DHT22;5807;51.606;7.624;2022-09-01T12:56:01;27.30;56.10
11501;DHT22;5807;51.606;7.624;2022-09-01T12:58:31;27.40;55.90
11501;DHT22;5807;51.606;7.624;2022-09-01T13:01:01;27.20;55.30
11501;DHT22;5807;51.606;7.624;2022-09-01T13:03:30;27.40;57.80
11501;DHT22;5807;51.606;7.624;2022-09-01T13:06:01;27.30;57.20
11501;DHT22;5807;51.606;7.624;2022-09-01T13:08:30;27.50;57.80
11501;DHT22;5807;51.606;7.624;2022-09-01T13:11:02;27.60;55.00
11501;DHT22;5807;51.606;7.624;2022-09-01T13:13:30;27.80;57.60
11501;DHT22;5807;51.606;7.624;2022-09-01T13:16:00;27.80;55.70
11501;DHT22;5807;51.606;7.624;2022-09-01T13:18:33;27.80;55.80
11501;DHT22;5807;51.606;7.624;2022-09-01T13:21:03;27.90;56.70
11501;DHT22;5807;51.606;7.624;2022-09-01T13:23:31;27.80;55.40
11501;DHT22;5807;51.606;7.624;2022-09-01T13:25:58;27.80;54.80
11501;DHT22;5807;51.606;7.624;2022-09-01T13:28:26;27.80;55.50
11501;DHT22;5807;51.606;7.624;2022-09-01T13:30:55;27.70;55.30
11501;DHT22;5807;51.606;7.624;2022-09-01T13:33:23;27.60;55.90
11501;DHT22;5807;51.606;7.624;2022-09-01T13:35:51;27.70;55.20
11501;DHT22;5807;51.606;7.624;2022-09-01T13:38:20;27.50;53.20
11501;DHT22;5807;51.606;7.624;2022-09-01T13:40:49;27.50;54.30
11501;DHT22;5807;51.606;7.624;2022-09-01T13:43:21;27.40;54.70
11501;DHT22;5807;51.606;7.624;2022-09-01T13:45:48;27.20;53.70
11501;DHT22;5807;51.606;7.624;2022-09-01T13:48:15;27.20;56.10
11501;DHT22;5807;51.606;7.624;2022-09-01T13:50:43;27.20;54.00
11501;DHT22;5807;51.606;7.624;2022-09-01T13:53:14;27.20;54.80
11501;DHT22;5807;51.606;7.624;2022-09-01T13:55:43;27.20;52.90
11501;DHT22;5807;51.606;7.624;2022-09-01T13:58:11;27.20;53.40
11501;DHT22;5807;51.606;7.624;2022-09-01T14:00:41;27.20;53.30
11501;DHT22;5807;51.606;7.624;2022-09-01T14:03:11;27.20;55.20
11501;DHT22;5807;51.606;7.624;2022-09-01T14:05:41;27.20;52.80
11501;DHT22;5807;51.606;7.624;2022-09-01T14:08:10;27.20;54.50
11501;DHT22;5807;51.606;7.624;2022-09-01T14:10:39;27.50;53.30
11501;DHT22;5807;51.606;7.624;2022-09-01T14:13:08;27.40;53.10
11501;DHT22;5807;51.606;7.624;2022-09-01T14:15:36;27.10;53.30
11501;DHT22;5807;51.606;7.624;2022-09-01T14:18:03;27.20;54.80
11501;DHT22;5807;51.606;7.624;2022-09-01T14:20:32;27.30;54.90
11501;DHT22;5807;51.606;7.624;2022-09-01T14:23:00;27.30;56.60
11501;DHT22;5807;51.606;7.624;2022-09-01T14:25:29;27.30;54.30
11501;DHT22;5807;51.606;7.624;2022-09-01T14:28:00;27.30;54.50
11501;DHT22;5807;51.606;7.624;2022-09-01T14:30:30;27.20;54.40
11501;DHT22;5807;51.606;7.624;2022-09-01T14:32:59;27.20;52.80
11501;DHT22;5807;51.606;7.624;2022-09-01T14:35:26;27.10;53.10
11501;DHT22;5807;51.606;7.624;2022-09-01T14:37:53;27.10;54.60
11501;DHT22;5807;51.606;7.624;2022-09-01T14:40:21;27.20;54.20
11501;DHT22;5807;51.606;7.624;2022-09-01T14:42:49;27.20;53.90
11501;DHT22;5807;51.606;7.624;2022-09-01T14:45:18;26.90;53.60
11501;DHT22;5807;51.606;7.624;2022-09-01T14:47:48;27.00;56.30
11501;DHT22;5807;51.606;7.624;2022-09-01T14:50:16;27.00;54.60
11501;DHT22;5807;51.606;7.624;2022-09-01T14:52:45;27.10;53.20
11501;DHT22;5807;51.606;7.624;2022-09-01T14:55:12;27.00;51.60
11501;DHT22;5807;51.606;7.624;2022-09-01T14:57:39;27.00;52.60
11501;DHT22;5807;51.606;7.624;2022-09-01T15:00:08;26.90;53.10
11501;DHT22;5807;51.606;7.624;2022-09-01T15:02:37;26.90;53.30
11501;DHT22;5807;51.606;7.624;2022-09-01T15:05:07;27.00;53.30
11501;DHT22;5807;51.606;7.624;2022-09-01T15:07:34;27.00;53.80
11501;DHT22;5807;51.606;7.624;2022-09-01T15:10:01;27.00;52.60
11501;DHT22;5807;51.606;7.624;2022-09-01T15:12:29;26.90;53.50
11501;DHT22;5807;51.606;7.624;2022-09-01T15:14:56;26.80;52.60
11501;DHT22;5807;51.606;7.624;2022-09-01T15:17:23;26.50;54.60
11501;DHT22;5807;51.606;7.624;2022-09-01T15:24:46;25.90;53.60
11501;DHT22;5807;51.606;7.624;2022-09-01T15:27:13;25.90;55.60
11501;DHT22;5807;51.606;7.624;2022-09-01T15:29:40;25.90;54.70
11501;DHT22;5807;51.606;7.624;2022-09-01T15:32:10;25.90;56.30
11501;DHT22;5807;51.606;7.624;2022-09-01T15:34:37;25.70;54.10
11501;DHT22;5807;51.606;7.624;2022-09-01T15:37:04;25.80;55.30
11501;DHT22;5807;51.606;7.624;2022-09-01T15:39:33;25.70;54.10
11501;DHT22;5807;51.606;7.624;2022-09-01T15:42:01;25.70;53.40
11501;DHT22;5807;51.606;7.624;2022-09-01T15:44:28;25.70;56.70
11501;DHT22;5807;51.606;7.624;2022-09-01T15:46:55;25.80;54.90
11501;DHT22;5807;51.606;7.624;2022-09-01T15:49:22;25.80;55.40
11501;DHT22;5807;51.606;7.624;2022-09-01T15:51:49;25.60;55.40
11501;DHT22;5807;51.606;7.624;2022-09-01T15:54:18;25.50;56.00
11501;DHT22;5807;51.606;7.624;2022-09-01T15:56:46;25.60;54.60
11501;DHT22;5807;51.606;7.624;2022-09-01T15:59:14;25.60;55.30
11501;DHT22;5807;51.606;7.624;2022-09-01T16:01:43;25.50;55.80
11501;DHT22;5807;51.606;7.624;2022-09-01T16:04:12;25.30;54.90
11501;DHT22;5807;51.606;7.624;2022-09-01T16:06:40;25.40;55.30
11501;DHT22;5807;51.606;7.624;2022-09-01T16:09:08;25.40;54.40
11501;DHT22;5807;51.606;7.624;2022-09-01T16:11:35;25.20;54.60
11501;DHT22;5807;51.606;7.624;2022-09-01T16:14:04;25.10;56.50
11501;DHT22;5807;51.606;7.624;2022-09-01T16:16:38;25.10;56.80
11501;DHT22;5807;51.606;7.624;2022-09-01T16:19:16;25.10;57.40
11501;DHT22;5807;51.606;7.624;2022-09-01T16:21:51;25.00;56.60
11501;DHT22;5807;51.606;7.624;2022-09-01T16:24:19;24.90;56.70
11501;DHT22;5807;51.606;7.624;2022-09-01T16:26:47;24.80;57.60
11501;DHT22;5807;51.606;7.624;2022-09-01T16:29:19;24.70;58.20
11501;DHT22;5807;51.606;7.624;2022-09-01T16:31:50;24.70;58.60
11501;DHT22;5807;51.606;7.624;2022-09-01T16:34:19;24.60;58.30
11501;DHT22;5807;51.606;7.624;2022-09-01T16:36:51;24.50;59.80
11501;DHT22;5807;51.606;7.624;2022-09-01T16:39:27;24.40;58.70
11501;DHT22;5807;51.606;7.624;2022-09-01T16:42:07;24.20;59.10
11501;DHT22;5807;51.606;7.624;2022-09-01T16:44:47;24.20;59.20
11501;DHT22;5807;51.606;7.624;2022-09-01T16:47:29;24.20;59.20